| time (UTC) | temp C | wind direction | speed KPH | gust KPH | rain 1hr cm | rain 24hr cm | rain mn cm | humidity % | barometer mb |
| 20260509210807 | 21 | 162 | 1.6 | 6.4 | 0.00 | 0.00 | 0.00 | 100 | 560.1 |
| 20260509205806 | 21 | 202 | 1.6 | 6.4 | 0.00 | 0.00 | 0.00 | 100 | 560.1 |
| 20260509204806 | 21 | 202 | 0.0 | 0.0 | 0.00 | 0.00 | 0.00 | 100 | 560.1 |
| 20260509203808 | 21 | 157 | 0.0 | 0.0 | 0.00 | 0.00 | 0.00 | 100 | 560.1 |
| 20260509202707 | 21 | 202 | 0.0 | 0.0 | 0.00 | 0.00 | 0.00 | 100 | 560.1 |
| 20260509201707 | 21 | 172 | 4.8 | 9.7 | 0.00 | 0.00 | 0.00 | 100 | 560.1 |
| 20260509195821 | 21 | 180 | 0.0 | 0.0 | 0.00 | 0.00 | 0.00 | 100 | 560.1 |
| 20260509195707 | 21 | 180 | 0.0 | 0.0 | 0.00 | 0.00 | 0.00 | 100 | 560.1 |
| 20260509194707 | 21 | 171 | 8.0 | 14.5 | 0.00 | 0.00 | 0.00 | 100 | 560.1 |
| 20260509193706 | 21 | 170 | 4.8 | 8.0 | 0.00 | 0.00 | 0.00 | 100 | 560.1 |
| 20260509192706 | 21 | 162 | 8.0 | 12.9 | 0.00 | 0.00 | 0.00 | 100 | 560.1 |
| 20260509191707 | 21 | 23 | 3.2 | 6.4 | 0.00 | 0.00 | 0.00 | 100 | 560.1 |
| 20260509190707 | 21 | 179 | 11.3 | 16.1 | 0.00 | 0.00 | 0.00 | 100 | 560.1 |
| 20260509185707 | 21 | 185 | 3.2 | 9.7 | 0.00 | 0.00 | 0.00 | 100 | 560.1 |
| 20260509184706 | 21 | 187 | 8.0 | 11.3 | 0.00 | 0.00 | 0.00 | 100 | 560.1 |
| 20260509184606 | 21 | 51 | 0.0 | 4.8 | 0.00 | 0.00 | 0.00 | 100 | 560.1 |
| 20260509182705 | 20 | 232 | 0.0 | 0.0 | 0.00 | 0.00 | 0.00 | 100 | 560.1 |
| 20260509180806 | 20 | 196 | 3.2 | 8.0 | 0.00 | 0.00 | 0.00 | 100 | 560.1 |
| 20260509175807 | 20 | 22 | 0.0 | 0.0 | 0.00 | 0.00 | 0.00 | 100 | 560.1 |
| 20260509174906 | 19 | 188 | 8.0 | 16.1 | 0.00 | 0.00 | 0.00 | 100 | 560.1 |
| 20260509173908 | 19 | 58 | 1.6 | 8.0 | 0.00 | 0.00 | 0.00 | 100 | 560.1 |
| 20260509173005 | 18 | 42 | 0.0 | 0.0 | 0.00 | 0.00 | 0.00 | 100 | 560.1 |
| 20260509171007 | 18 | 11 | 0.0 | 6.4 | 0.00 | 0.00 | 0.00 | 100 | 560.1 |
| 20260509170106 | 18 | 27 | 3.2 | 8.0 | 0.00 | 0.00 | 0.00 | 100 | 560.1 |
| 20260509165106 | 18 | 36 | 3.2 | 9.7 | 0.00 | 0.00 | 0.00 | 100 | 560.1 |
| 20260509164206 | 18 | 35 | 1.6 | 9.7 | 0.00 | 0.00 | 0.00 | 100 | 560.1 |
| 20260509162307 | 18 | 31 | 3.2 | 9.7 | 0.00 | 0.00 | 0.00 | 100 | 560.1 |
| 20260509160405 | 18 | 41 | 8.0 | 16.1 | 0.00 | 0.00 | 0.00 | 100 | 560.1 |
| 20260509155408 | 18 | 22 | 0.0 | 0.0 | 0.00 | 0.00 | 0.00 | 100 | 560.1 |
| 20260509154409 | 18 | 11 | 1.6 | 8.0 | 0.00 | 0.00 | 0.00 | 100 | 560.1 |
| 20260509153408 | 18 | 46 | 3.2 | 8.0 | 0.00 | 0.00 | 0.00 | 100 | 560.1 |
| 20260509152506 | 18 | 72 | 0.0 | 0.0 | 0.00 | 0.00 | 0.00 | 100 | 560.1 |
| 20260509151507 | 17 | 28 | 0.0 | 6.4 | 0.00 | 0.00 | 0.00 | 100 | 560.1 |
| 20260509150521 | 17 | 360 | 0.0 | 0.0 | 0.00 | 0.00 | 0.00 | 100 | 560.1 |
| 20260509145608 | 17 | 329 | 1.6 | 4.8 | 0.00 | 0.00 | 0.00 | 100 | 560.1 |
| 20260509143607 | 16 | 34 | 1.6 | 6.4 | 0.00 | 0.00 | 0.00 | 100 | 560.1 |
| 20260509142507 | 16 | 354 | 1.6 | 9.7 | 0.00 | 0.00 | 0.00 | 100 | 560.1 |
| 20260509141507 | 16 | 37 | 0.0 | 6.4 | 0.00 | 0.00 | 0.00 | 100 | 560.1 |
| 20260509140606 | 16 | 17 | 0.0 | 4.8 | 0.00 | 0.00 | 0.00 | 100 | 560.1 |
| 20260509135608 | 16 | 225 | 0.0 | 0.0 | 0.00 | 0.00 | 0.00 | 100 | 560.1 |
| 20260509133705 | 15 | 202 | 0.0 | 0.0 | 0.00 | 0.00 | 0.00 | 100 | 560.1 |
| 20260509130707 | 15 | 45 | 0.0 | 0.0 | 0.00 | 0.00 | 0.00 | 100 | 560.1 |
| 20260509125707 | 15 | 45 | 0.0 | 0.0 | 0.00 | 0.00 | 0.00 | 100 | 560.1 |
| 20260509124707 | 14 | 180 | 0.0 | 0.0 | 0.00 | 0.00 | 0.00 | 100 | 560.1 |
| 20260509123806 | 14 | 180 | 0.0 | 0.0 | 0.00 | 0.00 | 0.00 | 100 | 560.1 |
| 20260509122809 | 14 | 180 | 0.0 | 0.0 | 0.00 | 0.00 | 0.00 | 100 | 560.1 |
| 20260509122705 | 14 | 180 | 0.0 | 0.0 | 0.00 | 0.00 | 0.00 | 100 | 560.1 |
| 20260509121706 | 13 | 180 | 0.0 | 0.0 | 0.00 | 0.00 | 0.00 | 100 | 560.1 |
| 20260509120708 | 13 | 180 | 0.0 | 0.0 | 0.00 | 0.00 | 0.00 | 100 | 560.1 |
| 20260509115709 | 13 | 180 | 0.0 | 0.0 | 0.00 | 0.00 | 0.00 | 100 | 560.1 |
| 20260509114806 | 13 | 22 | 0.0 | 0.0 | 0.00 | 0.00 | 0.00 | 100 | 560.1 |
| 20260509113809 | 13 | 22 | 0.0 | 0.0 | 0.00 | 0.00 | 0.00 | 100 | 560.1 |
| 20260509112906 | 13 | 22 | 0.0 | 0.0 | 0.00 | 0.00 | 0.00 | 100 | 560.1 |
| 20260509111908 | 13 | 22 | 0.0 | 0.0 | 0.00 | 0.00 | 0.00 | 100 | 560.1 |
| 20260509111006 | 12 | 305 | 0.0 | 0.0 | 0.00 | 0.00 | 0.00 | 100 | 560.1 |
| 20260509110007 | 12 | 202 | 0.0 | 0.0 | 0.00 | 0.00 | 0.00 | 100 | 560.1 |
| 20260509105008 | 12 | 202 | 0.0 | 0.0 | 0.00 | 0.00 | 0.00 | 100 | 560.1 |
| 20260509103108 | 12 | 202 | 0.0 | 0.0 | 0.00 | 0.00 | 0.00 | 100 | 560.1 |
| 20260509102107 | 12 | 202 | 0.0 | 0.0 | 0.00 | 0.00 | 0.00 | 100 | 560.1 |
| 20260509101107 | 12 | 202 | 0.0 | 0.0 | 0.00 | 0.00 | 0.00 | 100 | 560.1 |
| 20260509100108 | 12 | 202 | 0.0 | 0.0 | 0.00 | 0.00 | 0.00 | 100 | 560.1 |
| 20260509095207 | 12 | 202 | 0.0 | 0.0 | 0.00 | 0.00 | 0.00 | 100 | 560.1 |
| 20260509094207 | 12 | 202 | 0.0 | 0.0 | 0.00 | 0.00 | 0.00 | 100 | 560.1 |
| 20260509093208 | 12 | 202 | 0.0 | 0.0 | 0.00 | 0.00 | 0.00 | 100 | 560.1 |
| 20260509092209 | 12 | 202 | 0.0 | 0.0 | 0.00 | 0.00 | 0.00 | 100 | 560.1 |
| 20260509091206 | 12 | 202 | 0.0 | 0.0 | 0.00 | 0.00 | 0.00 | 100 | 560.1 |
| 20260509085210 | 13 | 202 | 0.0 | 0.0 | 0.00 | 0.00 | 0.00 | 100 | 560.1 |
| 20260509085108 | 13 | 202 | 0.0 | 0.0 | 0.00 | 0.00 | 0.00 | 100 | 560.1 |
| 20260509084108 | 13 | 202 | 0.0 | 0.0 | 0.00 | 0.00 | 0.00 | 100 | 560.1 |
| 20260509082108 | 14 | 180 | 0.0 | 0.0 | 0.00 | 0.00 | 0.00 | 100 | 560.1 |
| 20260509080206 | 14 | 180 | 0.0 | 0.0 | 0.00 | 0.00 | 0.00 | 100 | 560.1 |
| 20260509075207 | 14 | 180 | 0.0 | 0.0 | 0.00 | 0.00 | 0.00 | 100 | 560.1 |
| 20260509074208 | 14 | 171 | 1.6 | 4.8 | 0.00 | 0.00 | 0.00 | 100 | 560.1 |
| 20260509073208 | 13 | 166 | 3.2 | 6.4 | 0.00 | 0.00 | 0.00 | 100 | 560.1 |
| 20260509072208 | 14 | 159 | 0.0 | 0.0 | 0.00 | 0.00 | 0.00 | 100 | 560.1 |
| 20260509070306 | 13 | 180 | 0.0 | 0.0 | 0.00 | 0.00 | 0.00 | 100 | 560.1 |
| 20260509065308 | 13 | 170 | 1.6 | 6.4 | 0.00 | 0.00 | 0.00 | 100 | 560.1 |
| 20260509064406 | 13 | 168 | 4.8 | 6.4 | 0.00 | 0.00 | 0.00 | 100 | 560.1 |
| 20260509063407 | 12 | 172 | 3.2 | 6.4 | 0.00 | 0.00 | 0.00 | 100 | 560.1 |
| 20260509062408 | 11 | 170 | 0.0 | 0.0 | 0.00 | 0.00 | 0.00 | 100 | 560.1 |
| 20260509061409 | 10 | 202 | 0.0 | 0.0 | 0.00 | 0.00 | 0.00 | 100 | 560.1 |
| 20260509060409 | 10 | 202 | 0.0 | 0.0 | 0.00 | 0.00 | 0.00 | 100 | 560.1 |
| 20260509055506 | 10 | 202 | 0.0 | 0.0 | 0.00 | 0.00 | 0.00 | 100 | 560.1 |
| 20260509054507 | 10 | 202 | 0.0 | 0.0 | 0.00 | 0.00 | 0.00 | 2 | 560.1 |
| 20260509053508 | 10 | 202 | 0.0 | 0.0 | 0.00 | 0.00 | 0.00 | 10 | 560.1 |
| 20260509052506 | 9 | 202 | 0.0 | 0.0 | 0.00 | 0.00 | 0.00 | 100 | 560.1 |
| 20260509051507 | 10 | 202 | 0.0 | 0.0 | 0.00 | 0.00 | 0.00 | 100 | 560.1 |
| 20260509050508 | 10 | 202 | 0.0 | 0.0 | 0.00 | 0.00 | 0.00 | 100 | 560.1 |
| 20260509045606 | 10 | 202 | 0.0 | 0.0 | 0.00 | 0.00 | 0.00 | 100 | 560.1 |
| 20260509043608 | 10 | 202 | 0.0 | 0.0 | 0.00 | 0.00 | 0.00 | 100 | 560.1 |
| 20260509042607 | 9 | 202 | 0.0 | 0.0 | 0.00 | 0.00 | 0.00 | 100 | 560.1 |
| 20260509041608 | 10 | 202 | 0.0 | 0.0 | 0.00 | 0.00 | 0.00 | 100 | 560.1 |
| 20260509040706 | 10 | 202 | 0.0 | 0.0 | 0.00 | 0.00 | 0.00 | 100 | 560.1 |
| 20260509035728 | 10 | 202 | 0.0 | 0.0 | 0.00 | 0.00 | 0.00 | 100 | 560.1 |
| 20260509034746 | 10 | 202 | 0.0 | 0.0 | 0.00 | 0.00 | 0.00 | 100 | 560.1 |
| 20260509033728 | 10 | 202 | 0.0 | 0.0 | 0.00 | 0.00 | 0.00 | 100 | 560.1 |
| 20260509032727 | 10 | 202 | 0.0 | 0.0 | 0.00 | 0.00 | 0.00 | 100 | 560.1 |
| 20260509031729 | 10 | 202 | 0.0 | 0.0 | 0.00 | 0.00 | 0.00 | 100 | 560.1 |
| 20260509030729 | 10 | 202 | 0.0 | 0.0 | 0.00 | 0.00 | 0.00 | 100 | 560.1 |
| 20260509024727 | 11 | 202 | 0.0 | 0.0 | 0.00 | 0.00 | 0.00 | 100 | 560.1 |
| 20260509022728 | 11 | 202 | 0.0 | 0.0 | 0.00 | 0.00 | 0.00 | 100 | 560.1 |
| 20260509020826 | 12 | 202 | 0.0 | 0.0 | 0.00 | 0.00 | 0.00 | 100 | 560.1 |
| 20260509020727 | 12 | 202 | 0.0 | 0.0 | 0.00 | 0.00 | 0.00 | 100 | 560.1 |
| 20260509012827 | 12 | 202 | 0.0 | 0.0 | 0.00 | 0.00 | 0.00 | 100 | 560.1 |
| 20260509012729 | 12 | 202 | 0.0 | 0.0 | 0.00 | 0.00 | 0.00 | 100 | 560.1 |
| 20260509011827 | 13 | 202 | 0.0 | 0.0 | 0.00 | 0.00 | 0.00 | 100 | 560.1 |
| 20260509010828 | 13 | 202 | 0.0 | 0.0 | 0.00 | 0.00 | 0.00 | 100 | 560.1 |
| 20260509005828 | 14 | 180 | 0.0 | 0.0 | 0.00 | 0.00 | 0.00 | 100 | 560.1 |
| 20260509003828 | 15 | 181 | 0.0 | 0.0 | 0.00 | 0.00 | 0.00 | 100 | 560.1 |
| 20260509002830 | 16 | 22 | 0.0 | 0.0 | 0.00 | 0.00 | 0.00 | 100 | 560.1 |
| 20260509001927 | 16 | 22 | 0.0 | 0.0 | 0.00 | 0.00 | 0.00 | 100 | 560.1 |
| 20260509001830 | 16 | 22 | 0.0 | 0.0 | 0.00 | 0.00 | 0.00 | 100 | 560.1 |
| 20260508235926 | 17 | 22 | 0.0 | 0.0 | 0.00 | 0.00 | 0.00 | 100 | 560.1 |
| 20260508234928 | 17 | 22 | 0.0 | 0.0 | 0.00 | 0.00 | 0.00 | 100 | 560.1 |
| 20260508233927 | 18 | 22 | 0.0 | 0.0 | 0.00 | 0.00 | 0.00 | 100 | 560.1 |
| 20260508233827 | 18 | 22 | 0.0 | 0.0 | 0.00 | 0.00 | 0.00 | 100 | 560.1 |
| 20260508232829 | 18 | 22 | 0.0 | 0.0 | 0.00 | 0.00 | 0.00 | 100 | 560.1 |
| 20260508232727 | 18 | 22 | 0.0 | 0.0 | 0.00 | 0.00 | 0.00 | 100 | 560.1 |
| 20260508230827 | 19 | 22 | 0.0 | 0.0 | 0.00 | 0.00 | 0.00 | 100 | 560.1 |
| 20260508224926 | 19 | 22 | 0.0 | 0.0 | 0.00 | 0.00 | 0.00 | 100 | 560.1 |
| 20260508223927 | 21 | 22 | 0.0 | 0.0 | 0.00 | 0.00 | 0.00 | 100 | 560.1 |
| 20260508222927 | 21 | 22 | 0.0 | 0.0 | 0.00 | 0.00 | 0.00 | 100 | 560.1 |
| 20260508221929 | 22 | 45 | 0.0 | 0.0 | 0.00 | 0.00 | 0.00 | 100 | 560.1 |
| 20260508214929 | 20 | 45 | 0.0 | 0.0 | 0.00 | 0.00 | 0.00 | 100 | 560.1 |
| 20260508213928 | 20 | 6 | 0.0 | 0.0 | 0.00 | 0.00 | 0.00 | 100 | 560.1 |
| 20260508212926 | 21 | 315 | 0.0 | 0.0 | 0.00 | 0.00 | 0.00 | 100 | 560.1 |
| 20260508212846 | 21 | 322 | 0.0 | 0.0 | 0.00 | 0.00 | 0.00 | 100 | 560.1 |